Time;durP1;ratioP1;P1;durP2;ratioP2;P2;SDS_P1;SDS_P2;PMS_P1;PMS_P2;Temp;Humidity;BMP_temperature;BMP_pressure;BME280_temperature;BME280_humidity;BME280_pressure;Samples;Min_cycle;Max_cycle;Signal;HPM_P1;HPM_P2
2022/10/17 00:01:26;;;;;;;14.20;10.40;;;;;;;5.57;73.59;101920.11;1663076;84;21069;-72
2022/10/17 00:03:54;;;;;;;11.10;9.43;;;;;;;5.55;73.64;101932.61;1654571;85;21071;-70
2022/10/17 00:06:20;;;;;;;12.45;9.95;;;;;;;5.51;73.60;101928.52;1660706;85;21086;-70
2022/10/17 00:08:47;;;;;;;10.97;9.83;;;;;;;5.51;73.65;101932.97;1679850;84;21044;-71
2022/10/17 00:11:20;;;;;;;12.03;8.90;;;;;;;5.49;73.57;101937.53;1667778;85;21044;-70
2022/10/17 00:13:49;;;;;;;12.60;9.77;;;;;;;5.47;73.56;101938.97;1654302;85;21026;-71
2022/10/17 00:16:27;;;;;;;16.67;10.37;;;;;;;5.44;73.64;101939.19;1634600;87;21020;-70
2022/10/17 00:18:53;;;;;;;14.37;10.63;;;;;;;5.39;73.61;101935.58;1614020;87;21089;-71
2022/10/17 00:21:22;;;;;;;12.73;9.43;;;;;;;5.33;73.70;101940.02;1639599;86;21085;-71
2022/10/17 00:23:49;;;;;;;13.33;9.93;;;;;;;5.26;73.90;101938.30;1621817;86;21524;-71
2022/10/17 00:26:16;;;;;;;15.25;10.68;;;;;;;5.22;74.09;101937.33;1662346;84;21037;-70
2022/10/17 00:28:46;;;;;;;13.53;11.07;;;;;;;5.19;74.44;101940.19;1647958;85;21025;-71
2022/10/17 00:31:17;;;;;;;13.23;9.97;;;;;;;4.81;74.85;101885.73;1625277;87;21573;-70
2022/10/17 00:33:43;;;;;;;14.13;10.40;;;;;;;5.18;75.02;101948.61;1635926;86;21012;-71
2022/10/17 00:36:17;;;;;;;14.80;9.10;;;;;;;5.19;74.98;101950.28;1658768;85;21113;-70
2022/10/17 00:38:47;;;;;;;13.90;10.97;;;;;;;5.20;74.94;101949.34;1657200;85;21544;-69
2022/10/17 00:41:17;;;;;;;13.20;10.17;;;;;;;5.20;74.88;101938.77;1624393;85;20994;-71
2022/10/17 00:44:07;;;;;;;18.07;10.33;;;;;;;5.18;75.59;101945.09;1700212;83;21006;-70
2022/10/17 00:46:36;;;;;;;13.97;10.00;;;;;;;5.14;75.93;101938.36;1695791;83;21057;-70
2022/10/17 00:49:10;;;;;;;13.83;11.20;;;;;;;5.10;76.24;101935.58;1693012;83;22446;-72
2022/10/17 00:51:45;;;;;;;13.90;10.70;;;;;;;5.06;76.59;101937.61;1682356;85;21070;-70
2022/10/17 00:54:14;;;;;;;11.97;10.67;;;;;;;5.03;76.63;101938.69;1642909;86;21669;-70
2022/10/17 00:56:41;;;;;;;13.73;10.43;;;;;;;5.01;76.66;101940.60;1638524;86;20954;-71
2022/10/17 00:59:11;;;;;;;15.60;10.67;;;;;;;5.02;76.78;101936.15;1632936;86;21174;-70
2022/10/17 01:01:40;;;;;;;13.63;11.33;;;;;;;5.00;76.77;101934.10;1659192;85;21005;-70
2022/10/17 01:04:09;;;;;;;12.43;11.00;;;;;;;4.96;77.03;101933.97;1647351;85;21143;-70
2022/10/17 01:06:35;;;;;;;12.77;10.97;;;;;;;4.91;77.33;101937.41;1649290;85;20990;-69
2022/10/17 01:09:01;;;;;;;11.73;10.48;;;;;;;4.87;77.44;101941.59;1649456;85;21007;-70
2022/10/17 01:12:04;;;;;;;14.03;11.30;;;;;;;4.85;77.60;101941.34;1652915;85;21030;-70
2022/10/17 01:14:49;;;;;;;14.90;10.30;;;;;;;4.84;77.63;101948.89;1641182;85;21401;-70
2022/10/17 01:17:30;;;;;;;14.93;10.23;;;;;;;4.82;77.64;101946.39;1654596;84;21054;-71
2022/10/17 01:20:25;;;;;;;13.17;11.73;;;;;;;4.81;77.83;101943.37;1681364;83;21546;-70
2022/10/17 01:23:12;;;;;;;13.83;10.03;;;;;;;4.81;77.86;101935.92;1703121;83;21596;-69
2022/10/17 01:26:04;;;;;;;13.27;10.07;;;;;;;4.80;77.95;101937.73;1654423;85;21061;-70
2022/10/17 01:28:49;;;;;;;13.40;9.60;;;;;;;4.78;78.14;101933.01;1696912;83;21530;-70
2022/10/17 01:31:19;;;;;;;11.70;9.67;;;;;;;4.84;77.97;101927.30;1677173;85;21078;-70
2022/10/17 01:34:18;;;;;;;11.37;9.77;;;;;;;4.87;77.82;101929.70;1687841;84;20989;-70
2022/10/17 01:37:02;;;;;;;13.07;9.73;;;;;;;4.93;77.71;101932.86;1686165;84;21074;-70
2022/10/17 01:39:49;;;;;;;10.90;8.80;;;;;;;4.97;77.52;101929.90;1679135;83;21021;-71
2022/10/17 01:42:45;;;;;;;11.00;9.40;;;;;;;4.99;77.45;101922.70;1676767;84;21056;-71
2022/10/17 01:45:17;;;;;;;10.17;8.97;;;;;;;5.02;77.35;101929.55;1681375;83;21049;-70
2022/10/17 01:47:49;;;;;;;11.30;9.80;;;;;;;5.06;77.20;101925.22;1689883;83;21017;-71
2022/10/17 01:50:22;;;;;;;12.40;9.70;;;;;;;5.10;76.99;101920.56;1690418;84;20989;-69
2022/10/17 01:53:00;;;;;;;13.53;9.33;;;;;;;5.13;76.83;101916.38;1687156;84;21542;-69
2022/10/17 01:55:37;;;;;;;9.15;7.78;;;;;;;5.15;76.73;101918.91;1681495;84;21232;-71
2022/10/17 01:58:21;;;;;;;12.15;9.85;;;;;;;5.18;76.64;101923.50;1686392;84;20978;-69
2022/10/17 02:00:49;;;;;;;11.40;8.97;;;;;;;5.19;76.48;101925.16;1677374;84;20998;-70
2022/10/17 02:03:20;;;;;;;11.63;9.77;;;;;;;5.20;76.44;101930.00;1659957;85;21049;-70
2022/10/17 02:05:46;;;;;;;10.93;9.43;;;;;;;5.21;76.35;101932.50;1691489;83;20993;-71
2022/10/17 02:08:13;;;;;;;12.70;9.40;;;;;;;5.21;76.29;101927.21;1710491;83;21139;-70
2022/10/17 02:11:01;;;;;;;14.80;9.33;;;;;;;5.21;76.23;101927.21;1702954;83;21027;-69
2022/10/17 02:13:54;;;;;;;11.70;9.07;;;;;;;5.21;76.19;101912.67;1672815;84;20989;-70
2022/10/17 02:16:41;;;;;;;14.13;9.00;;;;;;;5.20;76.24;101915.45;1655985;84;21077;-70
2022/10/17 02:19:19;;;;;;;11.43;8.87;;;;;;;5.17;76.30;101916.51;1659108;84;21053;-70
2022/10/17 02:22:07;;;;;;;10.83;9.47;;;;;;;5.19;76.22;101921.69;1663944;84;22130;-70
2022/10/17 02:24:50;;;;;;;13.83;9.70;;;;;;;5.20;76.18;101922.06;1662354;84;21065;-70
2022/10/17 02:27:34;;;;;;;11.57;9.57;;;;;;;5.23;76.10;101912.56;1671929;84;21073;-72
2022/10/17 02:30:11;;;;;;;14.27;10.10;;;;;;;5.23;76.05;101911.24;1668451;84;21057;-70
2022/10/17 02:33:00;;;;;;;14.17;10.43;;;;;;;5.20;76.23;101907.04;1691183;83;20967;-69
2022/10/17 02:35:30;;;;;;;9.53;8.53;;;;;;;5.18;76.34;101916.89;1682178;84;21073;-69
2022/10/17 02:37:58;;;;;;;12.63;9.73;;;;;;;5.16;76.45;101916.16;1671384;83;21024;-70
2022/10/17 02:40:29;;;;;;;13.07;8.40;;;;;;;5.17;76.38;101922.28;1658754;85;21076;-69
2022/10/17 02:42:59;;;;;;;12.97;8.93;;;;;;;5.17;76.48;101919.16;1667554;84;21079;-72
2022/10/17 02:45:34;;;;;;;14.57;9.07;;;;;;;5.15;76.71;101915.78;1653808;84;21534;-70
2022/10/17 02:48:08;;;;;;;14.13;9.43;;;;;;;5.14;76.75;101911.92;1667986;84;21049;-72
2022/10/17 02:50:58;;;;;;;13.13;8.48;;;;;;;5.12;76.87;101917.80;1642734;85;21116;-74
2022/10/17 02:53:35;;;;;;;8.83;7.77;;;;;;;5.11;76.96;101906.41;1651319;85;21487;-70
2022/10/17 02:56:07;;;;;;;13.93;9.20;;;;;;;5.11;76.89;101908.20;1660006;85;21124;-71
2022/10/17 02:58:36;;;;;;;12.70;9.73;;;;;;;5.10;76.96;101913.95;1662555;85;21069;-71
2022/10/17 03:01:04;;;;;;;10.70;9.13;;;;;;;4.74;76.93;101850.14;1673690;84;21091;-70
2022/10/17 03:03:32;;;;;;;13.70;9.47;;;;;;;5.11;77.06;101914.33;1678176;84;21042;-72
2022/10/17 03:06:01;;;;;;;13.67;9.53;;;;;;;5.11;77.01;101928.87;1689583;82;21022;-70
2022/10/17 03:08:27;;;;;;;10.28;8.70;;;;;;;5.13;76.98;101941.48;1690695;84;21064;-70
2022/10/17 03:10:56;;;;;;;12.30;9.73;;;;;;;5.16;76.89;101947.02;1692775;83;21017;-70
2022/10/17 03:13:23;;;;;;;13.00;8.75;;;;;;;5.15;76.93;101950.15;1674259;83;21539;-70
2022/10/17 03:15:50;;;;;;;12.73;9.17;;;;;;;5.17;76.79;101953.52;1651088;85;21074;-70
2022/10/17 03:18:18;;;;;;;11.97;9.57;;;;;;;5.19;76.82;101960.85;1673724;84;21081;-70
2022/10/17 03:20:46;;;;;;;11.17;9.23;;;;;;;5.21;76.74;101968.19;1674306;84;21008;-70
2022/10/17 03:23:13;;;;;;;11.27;9.50;;;;;;;5.24;76.83;101973.27;1663569;85;21030;-70
2022/10/17 03:25:40;;;;;;;13.23;10.13;;;;;;;5.26;76.90;101969.19;1698545;82;21571;-70
2022/10/17 03:28:08;;;;;;;15.77;10.93;;;;;;;5.23;76.78;101970.23;1691452;82;21546;-71
2022/10/17 03:30:37;;;;;;;13.20;10.17;;;;;;;5.22;76.81;101973.02;1677070;83;21542;-73
2022/10/17 03:33:03;;;;;;;13.63;9.53;;;;;;;5.17;76.98;101966.73;1671468;84;21029;-70
2022/10/17 03:35:30;;;;;;;11.85;10.65;;;;;;;5.14;77.14;101970.95;1677968;83;21094;-70
2022/10/17 03:37:57;;;;;;;11.40;9.40;;;;;;;5.09;77.26;101976.20;1678252;83;21495;-71
2022/10/17 03:40:23;;;;;;;12.45;9.60;;;;;;;5.05;77.44;101976.42;1682365;83;21280;-71
2022/10/17 03:42:50;;;;;;;14.00;9.88;;;;;;;5.07;77.59;101982.92;1706866;82;21007;-71
2022/10/17 03:45:16;;;;;;;13.40;10.25;;;;;;;5.05;77.53;101986.98;1685542;82;21086;-71
2022/10/17 03:47:42;;;;;;;;;;;;;;;5.03;77.71;101991.55;1677048;83;21506;-71
2022/10/17 03:50:09;;;;;;;10.87;9.77;;;;;;;5.03;77.61;101985.42;1646052;85;20171;-73
2022/10/17 03:52:36;;;;;;;12.73;10.33;;;;;;;4.96;77.67;101982.37;1645423;85;21075;-71
2022/10/17 03:55:03;;;;;;;12.98;10.20;;;;;;;4.96;77.72;101984.17;1639600;85;21099;-70
2022/10/17 03:57:30;;;;;;;12.50;10.00;;;;;;;4.98;77.65;101990.19;1679728;83;21125;-71
2022/10/17 03:59:56;;;;;;;10.55;9.33;;;;;;;4.96;77.69;101986.33;1677925;83;21090;-70
2022/10/17 04:02:25;;;;;;;20.57;14.83;;;;;;;4.96;77.68;101985.02;1667673;84;21010;-71
2022/10/17 04:04:52;;;;;;;14.85;11.18;;;;;;;4.95;77.67;101975.38;1684404;83;20998;-74
2022/10/17 04:07:18;;;;;;;12.55;9.98;;;;;;;4.94;77.68;101980.80;1693526;83;21030;-71
2022/10/17 04:09:46;;;;;;;13.30;11.00;;;;;;;4.95;77.65;101984.62;1684402;83;21063;-72
2022/10/17 04:12:14;;;;;;;13.33;9.43;;;;;;;4.96;77.59;101980.21;1676304;84;21009;-72
2022/10/17 04:14:41;;;;;;;12.20;8.77;;;;;;;4.98;77.44;101985.74;1683923;83;21156;-69
2022/10/17 04:17:09;;;;;;;9.87;8.60;;;;;;;5.01;77.28;101990.81;1685402;83;21068;-69
2022/10/17 04:19:36;;;;;;;12.30;9.67;;;;;;;5.08;77.09;101983.27;1683414;83;21047;-71
2022/10/17 04:22:04;;;;;;;9.17;8.27;;;;;;;5.11;76.79;101975.13;1673216;84;21044;-71
2022/10/17 04:24:33;;;;;;;14.87;8.77;;;;;;;5.15;76.40;101977.06;1696260;83;20985;-71
2022/10/17 04:27:01;;;;;;;8.40;7.47;;;;;;;5.19;76.12;101972.75;1706737;82;21043;-71
2022/10/17 04:29:30;;;;;;;12.20;8.60;;;;;;;5.23;75.73;101962.30;1710996;82;21496;-71
2022/10/17 04:32:07;;;;;;;11.15;8.65;;;;;;;5.29;75.46;101959.69;1687463;83;21018;-69
2022/10/17 04:34:36;;;;;;;10.47;8.50;;;;;;;5.35;75.26;101951.78;1687352;83;20990;-70
2022/10/17 04:37:02;;;;;;;12.73;8.67;;;;;;;5.38;75.17;101950.23;1683378;83;21003;-69
2022/10/17 04:39:29;;;;;;;;;;;;;;;5.40;75.04;101954.44;1686211;83;21018;-71
2022/10/17 04:41:57;;;;;;;10.23;8.40;;;;;;;5.49;74.96;101962.17;1675516;80;93747;-85
2022/10/17 04:44:34;;;;;;;10.75;9.25;;;;;;;5.67;74.57;101963.92;1669385;84;21015;-87
2022/10/17 04:47:07;;;;;;;11.53;9.03;;;;;;;5.90;73.71;101971.42;1668800;84;21487;-87
2022/10/17 04:49:39;;;;;;;11.40;8.60;;;;;;;6.07;72.61;101974.62;1647556;85;21014;-88
2022/10/17 04:52:07;;;;;;;13.57;8.63;;;;;;;6.23;72.18;101969.80;1655720;84;21472;-88
2022/10/17 04:54:43;;;;;;;11.43;8.70;;;;;;;6.37;71.30;101968.24;1671100;84;21050;-88
2022/10/17 04:57:18;;;;;;;14.03;9.20;;;;;;;6.75;70.94;101968.81;1671512;84;21086;-91
2022/10/17 04:59:47;;;;;;;13.03;9.20;;;;;;;7.10;68.70;101969.06;1677467;84;21067;-90
2022/10/17 05:02:25;;;;;;;10.00;9.00;;;;;;;7.20;67.74;101969.52;1671857;84;21007;-87
2022/10/17 05:04:52;;;;;;;14.58;11.05;;;;;;;7.25;67.43;101973.59;1675048;84;21074;-93
2022/10/17 05:07:23;;;;;;;14.03;9.37;;;;;;;7.44;67.21;101975.56;1641783;85;21628;-89
2022/10/17 05:10:05;;;;;;;11.03;9.27;;;;;;;7.83;65.24;101987.30;1661355;84;21068;-90
2022/10/17 05:12:32;;;;;;;11.63;8.93;;;;;;;7.96;63.91;101983.96;1657149;84;21026;-89
2022/10/17 05:15:09;;;;;;;11.87;10.47;;;;;;;7.84;63.89;101992.98;1663204;84;20982;-90
2022/10/17 05:17:35;;;;;;;11.77;9.07;;;;;;;7.75;64.47;101983.14;1680206;84;21039;-87
2022/10/17 05:20:01;;;;;;;13.60;9.38;;;;;;;7.92;64.45;101988.34;1677875;84;21015;-86
2022/10/17 05:22:30;;;;;;;11.37;9.63;;;;;;;8.39;63.26;101979.43;1683121;84;21023;-88
2022/10/17 05:24:57;;;;;;;12.00;10.63;;;;;;;9.01;61.55;101987.34;1655950;84;21551;-89
2022/10/17 05:27:25;;;;;;;10.10;8.95;;;;;;;9.65;58.89;101996.60;1677427;84;21671;-86
2022/10/17 05:29:56;;;;;;;21.30;10.73;;;;;;;10.28;56.83;101996.03;1654639;85;20986;-90
2022/10/17 05:32:25;;;;;;;9.53;8.30;;;;;;;10.78;54.19;101989.03;1643249;84;21024;-86
2022/10/17 05:34:55;;;;;;;9.98;8.48;;;;;;;11.08;52.92;101989.69;1677779;84;21046;-87
2022/10/17 05:37:24;;;;;;;14.00;8.80;;;;;;;11.24;52.06;101986.33;1661761;84;20966;-85
2022/10/17 05:39:54;;;;;;;10.28;7.95;;;;;;;11.53;51.08;101980.77;1677540;84;21047;-84
2022/10/17 05:42:21;;;;;;;11.15;8.00;;;;;;;11.72;50.28;101973.06;1673270;84;21070;-82
2022/10/17 05:44:49;;;;;;;9.53;8.53;;;;;;;11.87;49.82;101971.49;1663851;84;21288;-83
2022/10/17 05:47:17;;;;;;;12.70;7.92;;;;;;;11.93;49.02;101971.91;1662273;84;21079;-86
2022/10/17 05:49:44;;;;;;;12.90;9.15;;;;;;;12.15;48.60;101976.72;1665452;84;21886;-84
2022/10/17 05:52:14;;;;;;;12.73;8.68;;;;;;;12.39;47.98;101980.50;1670468;84;21543;-82
2022/10/17 05:54:48;;;;;;;9.33;8.13;;;;;;;12.67;47.72;101990.47;1662957;84;21043;-84
2022/10/17 05:57:28;;;;;;;9.48;7.30;;;;;;;13.01;46.78;101993.08;1662977;84;21071;-85
2022/10/17 05:59:55;;;;;;;10.18;8.80;;;;;;;12.94;46.38;102004.61;1661068;84;21159;-86
2022/10/17 06:02:22;;;;;;;12.85;7.72;;;;;;;12.41;47.21;101994.55;1680340;84;21122;-84
2022/10/17 06:05:07;;;;;;;11.00;8.55;;;;;;;11.63;48.75;101999.37;1674759;84;21024;-84
2022/10/17 06:07:34;;;;;;;10.40;8.68;;;;;;;10.87;51.43;102004.14;1663993;84;21511;-84
2022/10/17 06:10:05;;;;;;;11.95;8.85;;;;;;;10.13;53.14;101988.99;1674902;84;21003;-84
2022/10/17 06:12:33;;;;;;;11.77;7.77;;;;;;;9.68;54.62;102005.63;1666649;84;21026;-83
2022/10/17 06:15:00;;;;;;;12.67;8.20;;;;;;;9.28;55.85;101994.63;1679026;84;21062;-84
2022/10/17 06:17:29;;;;;;;12.73;8.93;;;;;;;9.02;57.07;101991.66;1660633;84;21125;-83
2022/10/17 06:19:56;;;;;;;13.30;9.17;;;;;;;8.79;57.84;101993.72;1627778;87;21100;-82
2022/10/17 06:22:22;;;;;;;10.88;9.75;;;;;;;8.57;59.12;101988.98;1597227;88;21039;-84
2022/10/17 06:24:51;;;;;;;13.90;9.70;;;;;;;8.47;59.77;102004.87;1583833;88;21073;-83
2022/10/17 06:27:17;;;;;;;11.70;9.67;;;;;;;8.38;60.16;102004.30;1641736;87;21114;-85
2022/10/17 06:29:56;;;;;;;18.37;10.70;;;;;;;8.31;60.70;102007.16;1626226;85;21001;-84
2022/10/17 06:33:01;;;;;;;12.23;9.33;;;;;;;8.30;60.95;102023.56;1615501;85;21003;-85
2022/10/17 06:35:33;;;;;;;14.47;10.50;;;;;;;8.33;61.34;102023.81;1625559;86;21146;-84
2022/10/17 06:38:28;;;;;;;13.37;10.53;;;;;;;8.33;60.82;102016.67;1616615;87;21040;-82
2022/10/17 06:41:13;;;;;;;12.17;9.77;;;;;;;8.33;60.99;102027.80;1625856;86;21035;-87
2022/10/17 06:43:46;;;;;;;16.63;10.20;;;;;;;8.32;61.26;102036.72;1633651;84;21099;-87
2022/10/17 06:46:33;;;;;;;13.83;9.70;;;;;;;8.35;61.26;102035.14;1669591;83;21011;-84
2022/10/17 06:49:06;;;;;;;12.93;9.50;;;;;;;8.36;61.90;102043.45;1637538;86;20970;-83
2022/10/17 06:51:38;;;;;;;19.20;10.80;;;;;;;8.44;61.17;102036.18;1655758;84;21542;-84
2022/10/17 06:54:06;;;;;;;15.03;11.07;;;;;;;8.49;61.19;102032.15;1664063;84;21009;-84
2022/10/17 06:56:40;;;;;;;15.97;10.50;;;;;;;8.54;61.23;102023.79;1626096;84;20975;-83
2022/10/17 06:59:09;;;;;;;15.77;11.07;;;;;;;8.58;60.97;102023.37;1670512;84;21072;-86
2022/10/17 07:01:56;;;;;;;20.10;11.53;;;;;;;8.62;60.63;102019.97;1668539;84;20978;-83
2022/10/17 07:04:24;;;;;;;18.80;10.90;;;;;;;8.70;61.03;102032.58;1659231;84;21051;-84
2022/10/17 07:06:54;;;;;;;15.60;10.73;;;;;;;8.81;60.78;102032.98;1660874;84;21073;-83
2022/10/17 07:09:25;;;;;;;13.87;9.90;;;;;;;8.90;60.55;102025.02;1637183;86;21010;-85
2022/10/17 07:11:54;;;;;;;16.30;10.87;;;;;;;8.95;60.57;102018.81;1661840;84;21581;-91
2022/10/17 07:14:30;;;;;;;15.03;10.13;;;;;;;8.98;59.59;102013.70;1660886;84;20985;-88
2022/10/17 07:16:53;;;;;;;14.90;10.63;;;;;;;8.99;60.03;102011.41;1648610;84;21038;-86
2022/10/17 07:19:22;;;;;;;14.87;11.50;;;;;;;9.05;60.77;102014.84;1665092;84;21030;-87
2022/10/17 07:22:01;;;;;;;14.60;10.40;;;;;;;9.14;59.58;102015.34;1658592;84;20959;-88
2022/10/17 07:24:37;;;;;;;14.00;10.73;;;;;;;9.23;59.61;102022.14;1661973;84;20966;-85
2022/10/17 07:27:05;;;;;;;19.20;10.00;;;;;;;9.34;59.93;102036.19;1652503;84;21634;-86
2022/10/17 07:29:32;;;;;;;15.50;11.27;;;;;;;9.43;59.54;102031.83;1658890;84;20979;-85
2022/10/17 07:32:02;;;;;;;18.47;11.17;;;;;;;9.54;59.02;102041.50;1663721;84;20966;-84
2022/10/17 07:34:30;;;;;;;19.23;11.37;;;;;;;9.63;59.00;102041.17;1675847;84;21121;-85
2022/10/17 07:36:57;;;;;;;15.20;11.33;;;;;;;9.71;58.72;102042.12;1664941;84;21058;-86
2022/10/17 07:39:23;;;;;;;16.62;10.75;;;;;;;9.80;58.37;102040.95;1671401;84;21070;-85
2022/10/17 07:41:51;;;;;;;13.03;10.30;;;;;;;9.88;58.71;102041.08;1667645;84;21125;-86
2022/10/17 07:44:18;;;;;;;15.50;10.47;;;;;;;9.95;57.52;102036.86;1645670;83;21034;-86
2022/10/17 07:46:48;;;;;;;18.33;11.80;;;;;;;9.97;57.79;102030.06;1666965;84;21049;-86
2022/10/17 07:49:16;;;;;;;14.90;10.47;;;;;;;10.03;57.64;102026.32;1639871;84;21041;-87
2022/10/17 07:51:51;;;;;;;13.37;10.37;;;;;;;10.14;57.99;102029.32;1656490;84;21053;-89
2022/10/17 07:54:21;;;;;;;14.83;10.73;;;;;;;10.21;57.05;102028.23;1667015;84;21537;-88
2022/10/17 07:56:54;;;;;;;16.60;9.40;;;;;;;10.23;56.96;102019.63;1669215;84;21057;-87
2022/10/17 07:59:25;;;;;;;13.50;9.17;;;;;;;10.27;56.90;102020.52;1666717;84;21109;-92
2022/10/17 08:01:56;;;;;;;15.50;9.27;;;;;;;10.35;57.04;102017.66;1646011;85;21014;-85
2022/10/17 08:04:22;;;;;;;16.33;10.23;;;;;;;10.46;56.77;102015.64;1684201;84;21028;-84
2022/10/17 08:06:49;;;;;;;15.97;9.87;;;;;;;10.62;56.68;102019.50;1666607;85;21176;-82
2022/10/17 08:09:15;;;;;;;;;;;;;;;10.77;56.32;102015.34;1672226;84;21622;-85
2022/10/17 08:11:43;;;;;;;15.23;8.97;;;;;;;10.92;55.37;102009.02;1665563;84;20138;-88
2022/10/17 08:14:12;;;;;;;16.02;8.88;;;;;;;10.98;54.79;102015.11;1665115;84;20990;-84
2022/10/17 08:16:39;;;;;;;13.07;8.10;;;;;;;11.09;54.88;102008.70;1660510;85;21056;-89
2022/10/17 08:19:07;;;;;;;11.00;8.30;;;;;;;11.20;54.27;102006.31;1628948;85;21134;-89
2022/10/17 08:21:36;;;;;;;11.40;8.57;;;;;;;11.31;54.58;102008.77;1674935;84;21010;-86
2022/10/17 08:24:04;;;;;;;13.00;8.47;;;;;;;10.37;53.69;101834.42;1643810;84;21326;-86
2022/10/17 08:26:30;;;;;;;;;;;;;;;11.59;53.63;102006.84;1686416;84;21047;-88
2022/10/17 08:28:56;;;;;;;9.77;6.40;;;;;;;11.72;52.22;101998.95;1643423;84;20155;-86
2022/10/17 08:31:22;;;;;;;;;;;;;;;11.79;52.49;101995.50;1662378;84;21145;-87
2022/10/17 08:34:09;;;;;;;12.17;6.37;;;;;;;11.89;52.26;101990.05;1680102;83;20194;-89
2022/10/17 08:36:43;;;;;;;12.30;7.17;;;;;;;11.96;51.64;101995.14;1677369;84;21035;-87
2022/10/17 08:39:13;;;;;;;12.40;5.93;;;;;;;12.10;51.66;101992.38;1676639;84;21166;-87
2022/10/17 08:42:13;;;;;;;9.43;5.67;;;;;;;12.21;50.10;101984.60;1674153;84;21699;-88
2022/10/17 08:45:15;;;;;;;8.53;6.00;;;;;;;12.30;50.40;101982.31;1674018;84;21130;-88
2022/10/17 08:47:50;;;;;;;10.05;5.75;;;;;;;12.40;49.96;101976.33;1675499;84;21038;-86
2022/10/17 08:50:36;;;;;;;15.55;6.28;;;;;;;12.49;49.44;101963.84;1676613;83;20988;-90
2022/10/17 08:53:32;;;;;;;10.50;5.85;;;;;;;12.58;49.73;101968.23;1675074;84;21343;-90
2022/10/17 08:56:08;;;;;;;12.20;5.42;;;;;;;12.70;49.35;101966.59;1675083;84;21063;-89
2022/10/17 08:58:41;;;;;;;6.55;5.22;;;;;;;12.81;48.86;101960.43;1647366;85;21084;-89
2022/10/17 09:01:43;;;;;;;7.00;4.58;;;;;;;12.92;48.42;101957.95;1631828;86;21080;-90
2022/10/17 09:04:43;;;;;;;6.55;4.75;;;;;;;13.03;48.45;101953.62;1633491;87;21064;-90
2022/10/17 09:07:28;;;;;;;5.55;5.00;;;;;;;13.12;47.14;101958.47;1625672;87;21634;-88
2022/10/17 09:10:14;;;;;;;8.75;4.42;;;;;;;13.13;47.44;101961.98;1614792;85;21074;-86
2022/10/17 09:13:13;;;;;;;14.33;4.83;;;;;;;13.18;47.00;101965.83;1647443;85;21055;-87
2022/10/17 09:15:51;;;;;;;7.45;4.70;;;;;;;13.25;46.55;101966.02;1650625;85;21119;-86
2022/10/17 09:18:23;;;;;;;5.72;3.72;;;;;;;13.33;46.67;101974.08;1640428;85;21219;-87
2022/10/17 09:20:54;;;;;;;9.93;4.83;;;;;;;13.42;46.28;101969.06;1640175;86;21100;-87
2022/10/17 09:23:35;;;;;;;7.87;4.37;;;;;;;13.52;46.71;101970.23;1683713;83;21367;-87
2022/10/17 09:26:05;;;;;;;7.80;4.60;;;;;;;13.65;45.56;101970.23;1614505;85;21162;-87
2022/10/17 09:28:38;;;;;;;8.48;4.47;;;;;;;13.71;45.61;101962.37;1609620;87;22192;-87
2022/10/17 09:31:28;;;;;;;5.55;4.00;;;;;;;13.79;45.39;101954.31;1669545;85;21053;-89
2022/10/17 09:33:59;;;;;;;6.80;4.42;;;;;;;13.83;44.63;101959.66;1653320;84;21132;-87
2022/10/17 09:36:33;;;;;;;7.58;4.17;;;;;;;13.91;45.46;101959.33;1615748;84;21545;-87
2022/10/17 09:39:07;;;;;;;5.97;4.17;;;;;;;14.00;44.77;101951.59;1640234;87;21021;-87
2022/10/17 09:41:47;;;;;;;11.57;4.72;;;;;;;14.06;44.57;101952.75;1626158;84;21101;-88
2022/10/17 09:44:29;;;;;;;7.20;4.70;;;;;;;14.12;44.30;101952.88;1623275;86;22903;-87
2022/10/17 09:47:38;;;;;;;8.88;4.20;;;;;;;14.21;44.27;101959.90;1621648;87;21096;-86
2022/10/17 09:50:16;;;;;;;12.47;4.05;;;;;;;14.31;44.02;101962.89;1631806;86;21013;-88
2022/10/17 09:52:47;;;;;;;4.55;3.27;;;;;;;14.45;43.89;101955.47;1652838;85;21009;-86
2022/10/17 09:55:35;;;;;;;6.83;3.30;;;;;;;14.58;42.46;101960.31;1631571;85;21073;-88
2022/10/17 09:58:06;;;;;;;4.67;3.80;;;;;;;14.64;41.78;101959.59;1628407;83;21137;-88
2022/10/17 10:00:38;;;;;;;6.40;4.40;;;;;;;14.67;42.03;101960.57;1625064;85;21086;-88
2022/10/17 10:03:21;;;;;;;3.77;3.30;;;;;;;14.73;42.22;101950.98;1647533;85;21008;-87
2022/10/17 10:06:18;;;;;;;8.00;3.17;;;;;;;14.81;42.37;101953.63;1646862;84;21060;-89
2022/10/17 10:08:53;;;;;;;5.78;3.42;;;;;;;14.92;42.34;101949.72;1648284;85;21513;-89
2022/10/17 10:11:27;;;;;;;4.87;3.50;;;;;;;14.91;41.17;101944.83;1663297;85;21022;-89
2022/10/17 10:14:01;;;;;;;4.25;3.02;;;;;;;14.85;40.88;101942.87;1660599;85;21073;-87
2022/10/17 10:16:35;;;;;;;6.62;3.52;;;;;;;14.82;40.84;101945.06;1634124;85;21077;-88
2022/10/17 10:19:06;;;;;;;5.30;3.25;;;;;;;14.78;41.21;101937.88;1632960;86;21026;-91
2022/10/17 10:21:37;;;;;;;5.00;3.33;;;;;;;14.80;41.16;101941.22;1659587;83;21039;-88
2022/10/17 10:24:14;;;;;;;5.58;3.98;;;;;;;14.80;40.67;101943.90;1677286;84;21081;-89
2022/10/17 10:26:49;;;;;;;7.45;3.80;;;;;;;14.82;41.02;101937.02;1654784;85;21208;-90
2022/10/17 10:29:43;;;;;;;4.12;2.75;;;;;;;14.87;40.80;101944.04;1645912;84;21042;-89
2022/10/17 10:32:27;;;;;;;6.95;3.70;;;;;;;14.90;40.46;101935.13;1614017;86;21623;-89
2022/10/17 10:35:36;;;;;;;6.67;3.27;;;;;;;14.90;40.72;101927.55;1575496;88;21102;-88
2022/10/17 10:38:15;;;;;;;6.90;3.35;;;;;;;14.90;40.79;101931.09;1648615;85;21113;-93
2022/10/17 10:40:56;;;;;;;4.00;3.47;;;;;;;14.93;40.57;101940.63;1636490;84;85768;-72
2022/10/17 10:43:37;;;;;;;8.50;3.62;;;;;;;14.97;40.76;101944.63;1615850;89;21062;-74
2022/10/17 10:46:19;;;;;;;5.85;3.87;;;;;;;15.03;40.50;101944.42;1589199;90;21099;-74
2022/10/17 10:48:54;;;;;;;6.65;4.03;;;;;;;15.06;40.69;101950.28;1590676;89;20980;-74
2022/10/17 10:51:41;;;;;;;6.45;4.03;;;;;;;15.06;40.28;101943.56;1614756;89;21534;-73
2022/10/17 10:54:13;;;;;;;11.33;3.87;;;;;;;15.04;40.13;101946.94;1651043;87;20999;-75
2022/10/17 10:56:48;;;;;;;5.95;4.17;;;;;;;15.03;40.58;101948.45;1648014;87;20993;-76
2022/10/17 10:59:28;;;;;;;9.88;3.55;;;;;;;15.03;40.16;101945.28;1599706;90;21034;-75
2022/10/17 11:02:21;;;;;;;5.12;3.75;;;;;;;15.08;39.91;101946.91;1635689;87;21029;-73
2022/10/17 11:05:13;;;;;;;4.55;3.52;;;;;;;15.10;39.86;101948.07;1644435;87;21032;-74
2022/10/17 11:08:01;;;;;;;4.87;3.40;;;;;;;15.10;39.78;101940.84;1650029;87;21047;-74
2022/10/17 11:10:40;;;;;;;4.08;3.58;;;;;;;15.12;40.33;101927.23;1649783;87;21049;-75
2022/10/17 11:13:20;;;;;;;4.03;3.40;;;;;;;15.19;39.95;101922.83;1646714;87;20989;-75
2022/10/17 11:15:52;;;;;;;6.45;3.75;;;;;;;15.23;39.82;101908.02;1643181;87;21033;-75
2022/10/17 11:18:47;;;;;;;4.95;3.58;;;;;;;15.27;39.50;101903.94;1636947;88;21006;-75
2022/10/17 11:21:40;;;;;;;4.47;3.62;;;;;;;15.31;39.44;101903.94;1638889;87;20962;-73
2022/10/17 11:24:27;;;;;;;5.95;3.22;;;;;;;15.34;39.33;101883.41;1638082;87;21137;-73
2022/10/17 11:26:58;;;;;;;6.22;3.12;;;;;;;15.41;38.71;101881.32;1606099;89;21020;-72
2022/10/17 11:29:33;;;;;;;4.17;3.05;;;;;;;15.41;38.40;101880.83;1625254;87;21117;-75
2022/10/17 11:34:09;;;;;;;6.28;2.72;;;;;;;15.51;39.02;101880.56;1795355;79;22855;-74
2022/10/17 11:36:40;;;;;;;4.15;3.02;;;;;;;15.56;38.91;101885.72;1760159;81;21064;-74
2022/10/17 11:39:47;;;;;;;5.65;2.85;;;;;;;15.61;38.28;101881.13;1759341;81;21028;-75
2022/10/17 11:42:32;;;;;;;5.45;3.35;;;;;;;15.61;37.84;101876.27;1755908;80;21832;-75
2022/10/17 11:45:13;;;;;;;5.47;3.30;;;;;;;15.60;38.22;101879.47;1753350;81;21581;-72
2022/10/17 11:47:53;;;;;;;6.67;3.42;;;;;;;15.60;37.86;101874.61;1761034;81;21787;-74
2022/10/17 11:50:30;;;;;;;5.65;3.25;;;;;;;15.63;38.21;101872.88;1757117;81;21058;-75
2022/10/17 11:53:16;;;;;;;4.25;3.08;;;;;;;15.67;38.08;101862.94;1759227;81;22045;-73
2022/10/17 11:55:43;;;;;;;5.83;2.98;;;;;;;15.70;37.68;101856.34;1760453;81;21104;-73
2022/10/17 11:58:39;;;;;;;5.92;3.10;;;;;;;15.69;37.41;101856.86;1759090;81;21689;-75
2022/10/17 12:01:28;;;;;;;6.40;3.33;;;;;;;15.70;37.47;101853.66;1760208;81;21160;-74